Time;durP1;ratioP1;P1;durP2;ratioP2;P2;SDS_P1;SDS_P2;PMS_P1;PMS_P2;Temp;Humidity;BMP_temperature;BMP_pressure;BME280_temperature;BME280_humidity;BME280_pressure;Samples;Min_cycle;Max_cycle;Signal;HPM_P1;HPM_P2
2020/12/09 00:01:17;;;;;;;23.05;15.52;;;1.60;99.90;;;;;;5093946;28;20295;-87
2020/12/09 00:03:43;;;;;;;20.60;14.93;;;1.70;99.90;;;;;;5092419;28;20299;-87
2020/12/09 00:06:09;;;;;;;20.02;15.30;;;1.70;99.90;;;;;;5093208;28;20623;-86
2020/12/09 00:08:37;;;;;;;18.20;14.20;;;1.60;99.90;;;;;;5093332;28;20302;-85
2020/12/09 00:11:04;;;;;;;20.40;15.57;;;1.60;99.90;;;;;;5095073;28;20302;-86
2020/12/09 00:13:31;;;;;;;20.00;14.77;;;1.70;99.90;;;;;;5096841;28;20488;-85
2020/12/09 00:15:57;;;;;;;21.27;14.32;;;1.80;99.90;;;;;;5096816;28;20282;-87
2020/12/09 00:18:23;;;;;;;18.90;14.80;;;1.90;99.90;;;;;;5097337;28;20207;-85
2020/12/09 00:20:50;;;;;;;20.38;14.98;;;1.90;99.90;;;;;;5095265;28;20208;-91
2020/12/09 00:23:17;;;;;;;25.43;16.20;;;2.00;99.90;;;;;;5096545;28;20716;-86
2020/12/09 00:25:43;;;;;;;19.23;14.85;;;2.00;99.90;;;;;;5096623;28;20457;-85
2020/12/09 00:28:11;;;;;;;17.17;14.48;;;2.00;99.90;;;;;;5096374;28;20610;-86
2020/12/09 00:30:37;;;;;;;21.60;15.82;;;2.10;99.90;;;;;;5096518;28;20250;-86
2020/12/09 00:33:04;;;;;;;24.17;15.75;;;2.10;99.90;;;;;;5096449;28;20726;-85
2020/12/09 00:35:30;;;;;;;21.92;15.48;;;2.20;99.90;;;;;;5096315;28;20651;-86
2020/12/09 00:37:56;;;;;;;22.65;15.52;;;2.20;99.90;;;;;;5093240;28;20207;-87
2020/12/09 00:40:23;;;;;;;21.02;14.77;;;2.20;99.90;;;;;;5084814;28;20247;-86
2020/12/09 00:42:52;;;;;;;19.33;15.10;;;2.30;99.90;;;;;;5091131;28;20211;-86
2020/12/09 00:45:19;;;;;;;22.10;15.60;;;2.30;99.90;;;;;;5095262;28;20445;-85
2020/12/09 00:47:46;;;;;;;20.88;16.73;;;2.40;99.90;;;;;;5095597;28;20284;-87
2020/12/09 00:50:27;;;;;;;21.00;15.50;;;2.40;99.90;;;;;;5095335;28;20207;-86
2020/12/09 00:52:54;;;;;;;19.40;14.15;;;2.40;99.90;;;;;;5095989;28;20441;-86
2020/12/09 00:55:21;;;;;;;17.73;15.10;;;2.30;99.90;;;;;;5096351;28;20298;-86
2020/12/09 00:57:48;;;;;;;23.63;15.97;;;2.30;99.90;;;;;;5095896;28;21020;-86
2020/12/09 01:00:14;;;;;;;19.73;15.40;;;2.40;99.90;;;;;;5094981;28;20478;-86
2020/12/09 01:02:41;;;;;;;21.80;15.60;;;2.40;99.90;;;;;;5090089;28;20455;-86
2020/12/09 01:05:09;;;;;;;17.63;15.60;;;2.50;99.90;;;;;;5094854;28;20548;-87
2020/12/09 01:07:35;;;;;;;24.48;15.35;;;2.50;99.90;;;;;;5096497;28;20262;-86
2020/12/09 01:10:03;;;;;;;20.27;16.67;;;2.60;99.90;;;;;;5094746;28;20234;-86
2020/12/09 01:12:29;;;;;;;21.17;15.83;;;2.70;99.90;;;;;;5095792;28;20507;-86
2020/12/09 01:14:55;;;;;;;20.07;15.73;;;2.70;99.90;;;;;;5094766;28;20486;-87
2020/12/09 01:17:22;;;;;;;23.57;16.77;;;2.70;99.90;;;;;;5095616;28;20452;-86
2020/12/09 01:19:49;;;;;;;21.70;16.93;;;2.80;99.90;;;;;;5095020;28;20816;-86
2020/12/09 01:22:15;;;;;;;22.80;16.57;;;2.90;99.90;;;;;;5094044;28;20556;-86
2020/12/09 01:24:41;;;;;;;26.23;16.47;;;2.90;99.90;;;;;;5094789;28;20542;-86
2020/12/09 01:27:08;;;;;;;20.57;15.07;;;3.00;99.90;;;;;;5095037;28;20564;-86
2020/12/09 01:29:34;;;;;;;22.70;16.40;;;3.00;99.90;;;;;;5095890;28;20565;-87
2020/12/09 01:32:01;;;;;;;21.00;15.13;;;3.00;99.90;;;;;;5095046;28;20545;-86
2020/12/09 01:34:29;;;;;;;21.90;16.00;;;3.10;99.90;;;;;;5095159;28;20508;-86
2020/12/09 01:36:59;;;;;;;20.90;16.10;;;3.10;99.90;;;;;;5094345;28;20456;-87
2020/12/09 01:39:26;;;;;;;24.13;16.50;;;3.10;99.90;;;;;;5093954;28;20473;-86
2020/12/09 01:41:55;;;;;;;22.17;16.13;;;3.20;99.90;;;;;;5095762;28;20540;-87
2020/12/09 01:44:23;;;;;;;21.00;16.50;;;3.20;99.90;;;;;;5094823;28;20481;-86
2020/12/09 01:46:50;;;;;;;20.27;15.67;;;3.30;99.90;;;;;;5094620;28;20459;-86
2020/12/09 01:49:17;;;;;;;18.67;14.20;;;3.30;99.90;;;;;;5094726;28;20522;-86
2020/12/09 01:51:43;;;;;;;18.92;14.82;;;3.30;99.90;;;;;;5094778;28;20533;-86
2020/12/09 01:54:11;;;;;;;22.17;15.97;;;3.30;99.90;;;;;;5094005;28;20705;-87
2020/12/09 01:56:37;;;;;;;18.97;14.70;;;3.40;99.90;;;;;;5094799;28;20455;-86
2020/12/09 01:59:03;;;;;;;22.50;16.97;;;3.40;99.90;;;;;;5094269;28;20482;-87
2020/12/09 02:01:31;;;;;;;25.37;16.43;;;3.40;99.90;;;;;;5094744;28;20456;-87
2020/12/09 02:03:57;;;;;;;21.08;16.80;;;3.40;99.90;;;;;;5094508;28;20490;-87
2020/12/09 02:06:24;;;;;;;21.73;15.70;;;3.40;99.90;;;;;;5094362;28;20200;-86
2020/12/09 02:08:50;;;;;;;21.97;15.67;;;3.40;99.90;;;;;;5094862;28;20568;-86
2020/12/09 02:11:17;;;;;;;19.47;14.00;;;3.40;99.90;;;;;;5094812;28;20896;-86
2020/12/09 02:13:45;;;;;;;19.90;14.77;;;3.50;99.90;;;;;;5094021;28;20535;-86
2020/12/09 02:16:13;;;;;;;19.20;15.30;;;3.50;99.90;;;;;;5094567;28;20861;-86
2020/12/09 02:18:40;;;;;;;19.40;14.83;;;3.50;99.90;;;;;;5093432;28;20496;-85
2020/12/09 02:21:07;;;;;;;16.20;13.93;;;3.60;99.90;;;;;;5093863;28;20956;-86
2020/12/09 02:23:34;;;;;;;19.00;14.27;;;3.60;99.90;;;;;;5094722;28;20446;-86
2020/12/09 02:26:01;;;;;;;24.33;15.17;;;3.60;99.90;;;;;;5094218;28;20538;-86
2020/12/09 02:28:27;;;;;;;20.40;15.67;;;3.60;99.90;;;;;;5094921;28;20442;-86
2020/12/09 02:30:54;;;;;;;20.60;14.73;;;3.70;99.90;;;;;;5094565;28;20478;-86
2020/12/09 02:33:20;;;;;;;16.87;12.80;;;3.70;99.90;;;;;;5093601;28;20529;-86
2020/12/09 02:35:46;;;;;;;18.57;14.27;;;3.70;99.90;;;;;;5093981;28;20533;-86
2020/12/09 02:38:13;;;;;;;18.90;14.87;;;3.70;99.90;;;;;;5092263;28;20463;-87
2020/12/09 02:40:40;;;;;;;20.07;16.60;;;3.80;99.90;;;;;;5094438;28;20896;-86
2020/12/09 02:43:07;;;;;;;18.10;13.83;;;3.80;99.90;;;;;;5093251;28;20483;-86
2020/12/09 02:45:33;;;;;;;20.83;15.40;;;3.80;99.90;;;;;;5094899;28;20997;-86
2020/12/09 02:47:59;;;;;;;18.77;15.13;;;3.80;99.90;;;;;;5094264;28;20486;-86
2020/12/09 02:50:26;;;;;;;20.70;15.40;;;3.80;99.90;;;;;;5094459;28;20534;-86
2020/12/09 02:52:52;;;;;;;19.37;13.00;;;3.80;99.90;;;;;;5094697;28;20539;-87
2020/12/09 02:55:19;;;;;;;17.53;13.47;;;3.90;99.90;;;;;;5092960;28;20532;-87
2020/12/09 02:57:47;;;;;;;20.10;15.60;;;3.90;99.90;;;;;;5093566;28;20447;-85
2020/12/09 03:00:14;;;;;;;19.90;15.20;;;3.90;99.90;;;;;;5092931;28;20483;-86
2020/12/09 03:02:41;;;;;;;21.97;15.40;;;4.00;99.90;;;;;;5093643;28;20476;-88
2020/12/09 03:05:08;;;;;;;18.83;15.13;;;3.90;99.90;;;;;;5093597;28;20541;-86
2020/12/09 03:07:34;;;;;;;19.00;15.03;;;3.90;99.90;;;;;;5093506;28;20526;-87
2020/12/09 03:10:01;;;;;;;23.83;15.97;;;4.00;99.90;;;;;;5093325;28;20864;-87
2020/12/09 03:12:27;;;;;;;20.53;15.60;;;4.00;99.90;;;;;;5093934;28;20439;-86
2020/12/09 03:14:54;;;;;;;21.40;15.60;;;4.00;99.90;;;;;;5093604;28;20468;-86
2020/12/09 03:17:20;;;;;;;20.73;15.70;;;4.00;99.90;;;;;;5093222;28;20450;-86
2020/12/09 03:19:47;;;;;;;20.87;14.63;;;4.00;99.90;;;;;;5093060;28;20571;-86
2020/12/09 03:22:13;;;;;;;19.67;14.80;;;4.00;99.90;;;;;;5093341;28;20529;-86
2020/12/09 03:24:40;;;;;;;21.70;16.73;;;4.00;99.90;;;;;;5093446;28;20451;-86
2020/12/09 03:27:06;;;;;;;21.80;16.17;;;4.00;99.90;;;;;;5092713;28;20540;-85
2020/12/09 03:29:32;;;;;;;23.40;16.07;;;4.10;99.90;;;;;;5093458;28;20518;-86
2020/12/09 03:32:03;;;;;;;20.07;15.30;;;4.10;99.90;;;;;;5093352;28;20444;-91
2020/12/09 03:34:29;;;;;;;21.97;16.27;;;4.10;99.90;;;;;;5092752;28;20544;-86
2020/12/09 03:36:55;;;;;;;20.20;15.50;;;4.10;99.90;;;;;;5093691;28;20537;-86
2020/12/09 03:39:22;;;;;;;21.40;15.57;;;4.10;99.90;;;;;;5090860;28;20480;-84
2020/12/09 03:41:48;;;;;;;22.23;16.07;;;4.10;99.90;;;;;;5093686;28;20454;-85
2020/12/09 03:44:14;;;;;;;19.77;14.67;;;4.10;99.90;;;;;;5092893;28;20542;-88
2020/12/09 03:46:41;;;;;;;19.10;14.27;;;4.20;99.90;;;;;;5095769;28;20484;-86
2020/12/09 03:49:08;;;;;;;23.37;16.50;;;4.20;99.90;;;;;;5096620;28;20532;-86
2020/12/09 03:51:34;;;;;;;20.93;15.80;;;4.20;99.90;;;;;;5097189;28;20536;-87
2020/12/09 03:54:02;;;;;;;19.57;13.63;;;4.20;99.90;;;;;;5097100;28;20490;-88
2020/12/09 03:56:29;;;;;;;26.10;17.83;;;4.20;99.90;;;;;;5097262;28;20941;-86
2020/12/09 03:58:56;;;;;;;23.30;17.10;;;4.30;99.90;;;;;;5097643;28;20528;-85
2020/12/09 04:01:22;;;;;;;23.50;17.17;;;4.20;99.90;;;;;;5096470;28;20998;-86
2020/12/09 04:03:48;;;;;;;27.13;17.90;;;4.20;99.90;;;;;;5096424;28;20554;-86
2020/12/09 04:06:16;;;;;;;24.67;17.00;;;4.20;99.90;;;;;;5097002;28;20534;-86
2020/12/09 04:08:42;;;;;;;25.27;18.13;;;4.20;99.90;;;;;;5097513;28;20531;-87
2020/12/09 04:11:08;;;;;;;23.07;18.00;;;4.20;99.90;;;;;;5096769;28;20478;-88
2020/12/09 04:13:35;;;;;;;24.00;17.77;;;4.20;99.90;;;;;;5097560;28;20550;-87
2020/12/09 04:16:04;;;;;;;26.67;17.10;;;4.10;99.90;;;;;;5095920;28;20535;-91
2020/12/09 04:18:30;;;;;;;22.73;18.23;;;4.10;99.90;;;;;;5108323;28;20422;-85
2020/12/09 04:20:57;;;;;;;25.30;18.30;;;4.10;99.90;;;;;;5099215;28;20478;-88
2020/12/09 04:23:24;;;;;;;22.20;17.10;;;4.10;99.90;;;;;;5093902;28;20499;-86
2020/12/09 04:25:51;;;;;;;24.00;17.30;;;4.10;99.90;;;;;;5091534;28;20447;-86
2020/12/09 04:28:17;;;;;;;24.80;17.73;;;4.10;99.90;;;;;;5095564;28;20453;-84
2020/12/09 04:30:44;;;;;;;24.83;17.70;;;4.10;99.90;;;;;;5096011;28;20524;-87
2020/12/09 04:33:10;;;;;;;24.00;17.70;;;4.10;99.90;;;;;;5095895;28;20525;-84
2020/12/09 04:35:39;;;;;;;25.10;17.07;;;4.00;99.90;;;;;;5096701;28;20454;-85
2020/12/09 04:38:06;;;;;;;26.53;17.27;;;4.10;99.90;;;;;;5095246;28;20844;-85
2020/12/09 04:40:33;;;;;;;23.97;16.03;;;4.10;99.90;;;;;;5095467;28;20484;-88
2020/12/09 04:43:01;;;;;;;24.23;16.97;;;4.10;99.90;;;;;;5082976;28;20448;-85
2020/12/09 04:45:30;;;;;;;26.23;16.87;;;4.10;99.90;;;;;;5092660;28;20928;-86
2020/12/09 04:48:07;;;;;;;20.67;16.37;;;4.10;99.90;;;;;;5095068;28;20543;-87
2020/12/09 04:50:41;;;;;;;20.87;16.53;;;4.20;99.90;;;;;;5097141;28;20537;-85
2020/12/09 04:53:17;;;;;;;25.67;17.73;;;4.20;99.90;;;;;;5095556;28;20528;-86
2020/12/09 04:55:50;;;;;;;26.73;18.73;;;4.20;99.90;;;;;;5096032;28;20522;-86
2020/12/09 04:58:28;;;;;;;21.67;16.13;;;4.20;99.90;;;;;;5095898;28;20511;-86
2020/12/09 05:01:05;;;;;;;22.40;16.07;;;4.20;99.90;;;;;;5086929;28;20557;-85
2020/12/09 05:03:41;;;;;;;23.67;18.20;;;4.20;99.90;;;;;;5085424;28;20459;-86
2020/12/09 05:06:07;;;;;;;26.17;18.33;;;4.20;99.90;;;;;;5078881;28;20463;-86
2020/12/09 05:08:36;;;;;;;24.07;17.50;;;4.20;99.90;;;;;;5096319;28;20455;-86
2020/12/09 05:11:07;;;;;;;24.87;17.70;;;4.20;99.90;;;;;;5095166;28;20570;-89
2020/12/09 05:13:36;;;;;;;21.87;17.37;;;4.30;99.90;;;;;;5095380;28;20449;-86
2020/12/09 05:16:03;;;;;;;27.57;17.60;;;4.20;99.90;;;;;;5094955;28;20450;-90
2020/12/09 05:18:36;;;;;;;23.00;16.63;;;4.20;99.90;;;;;;5095479;28;20452;-86
2020/12/09 05:21:17;;;;;;;22.87;16.43;;;4.20;99.90;;;;;;5088709;28;20560;-90
2020/12/09 05:23:46;;;;;;;22.20;15.73;;;4.10;99.90;;;;;;5096314;28;20449;-85
2020/12/09 05:26:18;;;;;;;25.33;17.20;;;4.10;99.90;;;;;;5095868;28;20829;-86
2020/12/09 05:28:45;;;;;;;22.73;17.07;;;4.10;99.90;;;;;;5095870;28;20482;-86
2020/12/09 05:31:20;;;;;;;20.67;15.80;;;4.10;99.90;;;;;;5095425;28;20864;-85
2020/12/09 05:33:46;;;;;;;23.07;16.93;;;4.10;99.90;;;;;;5095330;28;20452;-85
2020/12/09 05:36:13;;;;;;;26.80;17.83;;;4.10;99.90;;;;;;5094922;28;20922;-87
2020/12/09 05:38:40;;;;;;;24.40;16.60;;;4.10;99.90;;;;;;5082172;28;20457;-86
2020/12/09 05:41:10;;;;;;;24.37;18.00;;;4.20;99.90;;;;;;5086292;28;20529;-85
2020/12/09 05:43:42;;;;;;;31.57;17.20;;;4.20;99.90;;;;;;5091706;28;20775;-85
2020/12/09 05:46:09;;;;;;;25.47;18.00;;;4.20;99.90;;;;;;5094892;28;20431;-85
2020/12/09 05:48:36;;;;;;;25.80;17.23;;;4.30;99.90;;;;;;5095691;28;20571;-85
2020/12/09 05:51:06;;;;;;;29.07;17.87;;;4.30;99.90;;;;;;5095008;28;20792;-88
2020/12/09 05:53:34;;;;;;;28.90;23.00;;;4.30;99.90;;;;;;5088953;28;20445;-84
2020/12/09 05:56:11;;;;;;;27.50;20.30;;;4.30;99.90;;;;;;5094717;28;20253;-84
2020/12/09 05:58:41;;;;;;;28.90;20.77;;;4.40;99.90;;;;;;5095102;28;20745;-84
2020/12/09 06:01:13;;;;;;;27.47;19.10;;;4.50;99.90;;;;;;5094419;28;20491;-86
2020/12/09 06:03:42;;;;;;;33.97;21.87;;;4.50;99.90;;;;;;5093050;28;20454;-84
2020/12/09 06:06:20;;;;;;;32.77;21.90;;;4.50;99.90;;;;;;5094392;28;20451;-84
2020/12/09 06:08:49;;;;;;;30.77;21.20;;;4.50;99.90;;;;;;5085011;28;20477;-86
2020/12/09 06:11:17;;;;;;;30.13;21.33;;;4.60;99.90;;;;;;5093562;28;20451;-86
2020/12/09 06:13:45;;;;;;;34.43;23.73;;;4.60;99.90;;;;;;5093343;28;20552;-85
2020/12/09 06:16:12;;;;;;;27.70;19.30;;;4.60;99.90;;;;;;5093871;28;20446;-86
2020/12/09 06:18:43;;;;;;;30.87;19.40;;;4.60;99.90;;;;;;5095076;28;20525;-86
2020/12/09 06:21:10;;;;;;;33.60;20.90;;;4.60;99.90;;;;;;5094982;28;20508;-86
2020/12/09 06:23:36;;;;;;;31.80;19.00;;;4.60;99.90;;;;;;5095387;28;20763;-86
2020/12/09 06:26:05;;;;;;;26.07;18.93;;;4.70;99.90;;;;;;5095859;28;20550;-86
2020/12/09 06:28:33;;;;;;;32.60;21.03;;;4.70;99.90;;;;;;5098610;28;20454;-86
2020/12/09 06:31:10;;;;;;;32.60;22.90;;;4.60;99.90;;;;;;5079826;28;20474;-86
2020/12/09 06:33:39;;;;;;;30.40;20.53;;;4.60;99.90;;;;;;5099128;28;20453;-86
2020/12/09 06:36:22;;;;;;;33.13;20.80;;;4.60;99.90;;;;;;5100137;28;20486;-86
2020/12/09 06:39:12;;;;;;;28.50;19.80;;;4.60;99.90;;;;;;5103700;28;20510;-89
2020/12/09 06:41:41;;;;;;;32.97;20.33;;;4.60;99.90;;;;;;5104343;28;20839;-86
2020/12/09 06:44:09;;;;;;;30.40;20.80;;;4.70;99.90;;;;;;5098390;28;20449;-88
2020/12/09 06:46:44;;;;;;;32.20;21.47;;;4.70;99.90;;;;;;5099125;28;20482;-86
2020/12/09 06:49:39;;;;;;;33.57;22.63;;;4.70;99.90;;;;;;5098695;28;20442;-84
2020/12/09 06:52:36;;;;;;;32.93;23.07;;;4.70;99.90;;;;;;5094626;28;20441;-84
2020/12/09 06:55:07;;;;;;;34.60;23.37;;;4.70;99.90;;;;;;5094486;28;20445;-84
2020/12/09 06:57:37;;;;;;;32.20;21.80;;;4.70;99.90;;;;;;5095042;28;20508;-83
2020/12/09 07:00:18;;;;;;;36.60;21.37;;;4.70;99.90;;;;;;5092961;28;20555;-83
2020/12/09 07:02:47;;;;;;;35.80;21.80;;;4.70;99.90;;;;;;5093339;28;20943;-84
2020/12/09 07:05:15;;;;;;;35.10;22.23;;;4.70;99.90;;;;;;5093143;28;20490;-83
2020/12/09 07:07:47;;;;;;;32.37;22.10;;;4.70;99.90;;;;;;5093416;28;20504;-83
2020/12/09 07:10:24;;;;;;;30.97;21.50;;;4.70;99.90;;;;;;5092875;28;20525;-85
2020/12/09 07:13:00;;;;;;;38.80;24.77;;;4.70;99.90;;;;;;5093109;28;20541;-84
2020/12/09 07:15:26;;;;;;;35.00;23.60;;;4.70;99.90;;;;;;5091642;28;20523;-84
2020/12/09 07:17:54;;;;;;;36.13;23.00;;;4.70;99.90;;;;;;5093471;28;20537;-84
2020/12/09 07:20:20;;;;;;;40.90;25.97;;;4.70;99.90;;;;;;5093926;28;20577;-85
2020/12/09 07:22:47;;;;;;;35.33;24.43;;;4.80;99.90;;;;;;5098075;28;20539;-85
2020/12/09 07:25:13;;;;;;;36.57;25.13;;;4.80;99.90;;;;;;5097886;28;20789;-85
2020/12/09 07:27:40;;;;;;;33.10;23.90;;;4.80;99.90;;;;;;5097365;28;20530;-84
2020/12/09 07:30:10;;;;;;;36.13;25.43;;;4.80;99.90;;;;;;5097982;28;20524;-85
2020/12/09 07:32:37;;;;;;;32.30;22.37;;;4.70;99.90;;;;;;5097204;28;20429;-84
2020/12/09 07:35:06;;;;;;;38.53;23.70;;;4.80;99.90;;;;;;5097694;28;20450;-87
2020/12/09 07:37:35;;;;;;;34.53;23.10;;;4.80;99.90;;;;;;5096165;28;20545;-85
2020/12/09 07:40:10;;;;;;;29.93;22.77;;;4.80;99.90;;;;;;5097870;28;20535;-84
2020/12/09 07:42:36;;;;;;;37.13;23.90;;;4.80;99.90;;;;;;5093554;28;20899;-85
2020/12/09 07:45:09;;;;;;;35.47;23.53;;;4.70;99.90;;;;;;5093382;28;20535;-85
2020/12/09 07:47:35;;;;;;;41.23;27.43;;;4.80;99.90;;;;;;5093648;28;20448;-86
2020/12/09 07:50:03;;;;;;;36.40;23.87;;;4.70;99.90;;;;;;5097387;28;20477;-85
2020/12/09 07:52:33;;;;;;;38.00;23.73;;;4.70;99.90;;;;;;5096459;28;20452;-84
2020/12/09 07:55:01;;;;;;;40.40;26.30;;;4.70;99.90;;;;;;5096621;28;20990;-86
2020/12/09 07:57:32;;;;;;;39.27;25.40;;;4.70;99.90;;;;;;5097455;28;20532;-85
2020/12/09 07:59:59;;;;;;;36.40;26.67;;;4.80;99.90;;;;;;5097131;28;20570;-85
2020/12/09 08:02:27;;;;;;;39.20;25.60;;;4.80;99.90;;;;;;5097048;28;20529;-85
2020/12/09 08:05:17;;;;;;;37.27;25.10;;;4.90;99.90;;;;;;5097506;28;20453;-86
2020/12/09 08:07:49;;;;;;;49.80;28.10;;;4.90;99.90;;;;;;5097161;28;20450;-85
2020/12/09 08:10:20;;;;;;;48.10;32.10;;;4.90;99.90;;;;;;5096351;28;20457;-85
2020/12/09 08:12:47;;;;;;;44.90;27.00;;;4.80;99.90;;;;;;5095065;28;20447;-85
2020/12/09 08:15:13;;;;;;;50.53;32.60;;;4.90;99.90;;;;;;5088528;28;20460;-86
2020/12/09 08:17:46;;;;;;;46.90;27.33;;;4.60;99.90;;;;;;5097126;28;20530;-85
2020/12/09 08:20:14;;;;;;;46.73;30.00;;;4.70;99.90;;;;;;5097786;28;20483;-86
2020/12/09 08:22:52;;;;;;;49.67;31.17;;;4.60;99.90;;;;;;5098874;28;20772;-85
2020/12/09 08:25:19;;;;;;;49.13;31.00;;;4.50;99.90;;;;;;5094696;28;20537;-87
2020/12/09 08:27:48;;;;;;;40.27;26.83;;;4.50;99.90;;;;;;5094439;28;20485;-87
2020/12/09 08:30:20;;;;;;;54.50;32.37;;;4.50;99.90;;;;;;5079544;28;20555;-86
2020/12/09 08:33:15;;;;;;;44.47;28.20;;;4.60;99.90;;;;;;5099143;28;20498;-85
2020/12/09 08:35:47;;;;;;;47.40;28.80;;;4.60;99.90;;;;;;5092500;28;20460;-84
2020/12/09 08:38:27;;;;;;;44.90;29.43;;;4.60;99.90;;;;;;5086112;28;20447;-88
2020/12/09 08:40:56;;;;;;;52.60;30.37;;;4.70;99.90;;;;;;5077303;28;20480;-84
2020/12/09 08:43:24;;;;;;;43.50;27.93;;;4.70;99.90;;;;;;5088658;28;20609;-84
2020/12/09 08:45:50;;;;;;;50.33;30.90;;;4.80;99.90;;;;;;5093727;28;20908;-84
2020/12/09 08:48:18;;;;;;;55.97;33.63;;;4.80;99.90;;;;;;5087578;28;20537;-84
2020/12/09 08:50:46;;;;;;;51.43;32.53;;;4.70;99.90;;;;;;5076642;28;20569;-84
2020/12/09 08:53:15;;;;;;;52.50;32.77;;;4.70;99.90;;;;;;5084757;28;20955;-92
2020/12/09 08:55:43;;;;;;;48.00;31.50;;;4.60;99.90;;;;;;5096270;28;20539;-85
2020/12/09 08:58:10;;;;;;;55.17;33.07;;;4.70;99.90;;;;;;5095636;28;20444;-85
2020/12/09 09:00:37;;;;;;;56.80;34.83;;;4.70;99.90;;;;;;5094979;28;20569;-85
2020/12/09 09:03:04;;;;;;;58.17;35.67;;;4.70;99.90;;;;;;5095530;28;20450;-85
2020/12/09 09:05:31;;;;;;;70.77;40.77;;;4.70;99.90;;;;;;5095656;28;20449;-85
2020/12/09 09:07:57;;;;;;;64.40;36.80;;;4.60;99.90;;;;;;5096449;28;20453;-84
2020/12/09 09:10:23;;;;;;;57.53;35.67;;;4.50;99.90;;;;;;5095380;28;20672;-85
2020/12/09 09:12:51;;;;;;;66.37;37.53;;;4.60;99.90;;;;;;5095582;28;20439;-85
2020/12/09 09:15:17;;;;;;;60.50;35.70;;;4.80;99.90;;;;;;5095348;28;20521;-85
2020/12/09 09:17:44;;;;;;;61.33;38.53;;;4.80;99.90;;;;;;5096181;28;20564;-85
2020/12/09 09:20:12;;;;;;;63.97;36.93;;;4.70;99.90;;;;;;5096710;28;20552;-85
2020/12/09 09:22:38;;;;;;;58.23;36.83;;;4.80;99.90;;;;;;5097091;28;20796;-85
2020/12/09 09:25:05;;;;;;;65.80;37.37;;;4.80;99.90;;;;;;5095496;28;20534;-85
2020/12/09 09:27:34;;;;;;;58.83;37.37;;;4.90;99.90;;;;;;5091089;28;20448;-85
2020/12/09 09:30:01;;;;;;;62.77;37.60;;;4.80;99.90;;;;;;5093298;28;20508;-85
2020/12/09 09:32:28;;;;;;;63.37;38.43;;;4.80;99.90;;;;;;5095203;28;21017;-85
2020/12/09 09:34:54;;;;;;;60.20;37.03;;;4.80;99.90;;;;;;5095686;28;20448;-85
2020/12/09 09:37:22;;;;;;;66.43;39.90;;;4.80;99.90;;;;;;5095433;28;20523;-85
2020/12/09 09:39:49;;;;;;;69.10;38.70;;;4.80;99.90;;;;;;5095772;28;20487;-84
2020/12/09 09:42:17;;;;;;;60.77;37.40;;;4.90;99.90;;;;;;5094582;28;20536;-85
2020/12/09 09:44:43;;;;;;;61.57;36.73;;;4.90;99.90;;;;;;5092903;28;20465;-85
2020/12/09 09:47:11;;;;;;;65.60;38.97;;;4.90;99.90;;;;;;5095656;28;20448;-85
2020/12/09 09:49:37;;;;;;;63.97;38.10;;;4.90;99.90;;;;;;5096145;28;20445;-85
2020/12/09 09:52:03;;;;;;;67.63;38.93;;;4.80;99.90;;;;;;5095506;28;20525;-85
2020/12/09 09:54:30;;;;;;;65.83;38.30;;;4.80;99.90;;;;;;5094443;28;20537;-85
2020/12/09 09:56:56;;;;;;;66.77;38.70;;;4.80;99.90;;;;;;5094763;28;20447;-85
2020/12/09 09:59:23;;;;;;;67.37;39.87;;;4.80;99.90;;;;;;5094969;28;20862;-85
2020/12/09 10:01:50;;;;;;;83.80;46.67;;;4.80;99.90;;;;;;5094889;28;20572;-85
2020/12/09 10:04:17;;;;;;;75.43;42.47;;;4.50;99.90;;;;;;5092923;28;20543;-85
2020/12/09 10:06:44;;;;;;;79.30;45.23;;;4.50;99.90;;;;;;5095135;28;20435;-86
2020/12/09 10:09:10;;;;;;;89.63;48.90;;;4.60;99.90;;;;;;5094665;28;20443;-84
2020/12/09 10:11:37;;;;;;;90.97;46.47;;;4.20;99.90;;;;;;5094335;28;20479;-84
2020/12/09 10:14:04;;;;;;;82.93;46.20;;;4.40;99.90;;;;;;5095188;28;20453;-85
2020/12/09 10:16:30;;;;;;;76.00;43.10;;;4.40;99.90;;;;;;5094235;28;20507;-84
2020/12/09 10:18:59;;;;;;;82.27;46.13;;;4.30;99.90;;;;;;5095114;28;20511;-85
2020/12/09 10:21:28;;;;;;;70.90;41.00;;;4.20;99.90;;;;;;5094708;28;20481;-85
2020/12/09 10:23:55;;;;;;;76.30;43.27;;;4.20;99.90;;;;;;5094635;28;20428;-84
2020/12/09 10:26:28;;;;;;;66.77;38.60;;;4.40;99.90;;;;;;5094624;28;20543;-85
2020/12/09 10:28:54;;;;;;;60.07;37.73;;;4.50;99.90;;;;;;5095061;28;20926;-85
2020/12/09 10:31:22;;;;;;;65.03;39.73;;;4.40;99.90;;;;;;5072910;28;20477;-86
2020/12/09 10:33:50;;;;;;;56.80;35.17;;;4.70;99.90;;;;;;5074947;28;20554;-85
2020/12/09 10:36:21;;;;;;;56.70;34.90;;;5.20;99.90;;;;;;5091505;28;20584;-93
2020/12/09 10:38:49;;;;;;;56.60;35.43;;;5.30;99.90;;;;;;5094084;28;20495;-85
2020/12/09 10:41:15;;;;;;;57.10;35.10;;;5.30;99.90;;;;;;5084951;28;20497;-85
2020/12/09 10:43:42;;;;;;;46.50;30.63;;;5.50;99.90;;;;;;5073394;28;20984;-85
2020/12/09 10:46:08;;;;;;;50.00;33.83;;;5.70;99.90;;;;;;5091228;28;20952;-85
2020/12/09 10:48:35;;;;;;;49.00;31.23;;;6.00;99.90;;;;;;5093551;28;20439;-85
2020/12/09 10:51:04;;;;;;;47.63;29.80;;;5.70;99.90;;;;;;5093626;28;20457;-85
2020/12/09 10:53:31;;;;;;;44.90;31.70;;;5.90;99.90;;;;;;5093830;28;20536;-85
2020/12/09 10:55:59;;;;;;;44.20;30.70;;;5.20;99.90;;;;;;5093462;28;20541;-85
2020/12/09 10:58:26;;;;;;;50.20;33.13;;;5.20;99.90;;;;;;5093450;28;20875;-85
2020/12/09 11:00:54;;;;;;;50.60;34.80;;;5.30;99.90;;;;;;5093737;28;20489;-85
2020/12/09 11:03:20;;;;;;;50.37;33.63;;;5.20;99.90;;;;;;5093567;28;20833;-86
2020/12/09 11:05:47;;;;;;;45.43;30.13;;;5.10;99.90;;;;;;5089598;28;20445;-87
2020/12/09 11:08:14;;;;;;;51.23;32.70;;;5.20;99.90;;;;;;5093460;28;20451;-86
2020/12/09 11:10:40;;;;;;;46.00;30.53;;;5.20;99.90;;;;;;5093688;28;20445;-86
2020/12/09 11:13:08;;;;;;;50.63;32.93;;;5.40;99.90;;;;;;5093423;28;20459;-84
2020/12/09 11:15:34;;;;;;;48.23;32.30;;;5.70;99.90;;;;;;5091644;28;20974;-86
2020/12/09 11:18:01;;;;;;;51.23;33.80;;;5.70;99.90;;;;;;5070728;28;20460;-85
2020/12/09 11:20:28;;;;;;;48.03;34.23;;;5.80;99.90;;;;;;5076000;28;20520;-85
2020/12/09 11:22:55;;;;;;;54.60;33.93;;;5.90;99.90;;;;;;5088802;28;20446;-85
2020/12/09 11:25:23;;;;;;;56.53;43.17;;;5.70;99.90;;;;;;5092232;28;20452;-85
2020/12/09 11:27:49;;;;;;;52.00;33.67;;;5.50;99.90;;;;;;5080711;28;20562;-85
2020/12/09 11:30:17;;;;;;;51.90;34.83;;;5.60;99.90;;;;;;5082603;28;21019;-86
2020/12/09 11:32:46;;;;;;;50.80;32.50;;;5.20;99.90;;;;;;5091933;28;20493;-85
2020/12/09 11:35:12;;;;;;;47.10;32.20;;;5.00;99.90;;;;;;5087457;28;20488;-85
2020/12/09 11:37:39;;;;;;;43.73;28.60;;;5.10;99.90;;;;;;5077600;28;20951;-86
2020/12/09 11:40:12;;;;;;;45.43;30.20;;;5.40;99.90;;;;;;5083621;28;20812;-86
2020/12/09 11:42:39;;;;;;;50.33;31.97;;;5.60;99.90;;;;;;5088754;28;20515;-84
2020/12/09 11:45:06;;;;;;;50.23;32.40;;;5.50;99.90;;;;;;5092227;28;20492;-85
2020/12/09 11:47:35;;;;;;;47.93;31.50;;;5.30;99.90;;;;;;5086145;28;20531;-86
2020/12/09 11:50:03;;;;;;;46.97;31.67;;;5.50;99.90;;;;;;5093143;28;20460;-86
2020/12/09 11:52:33;;;;;;;47.33;32.70;;;5.70;99.90;;;;;;5093883;28;20858;-86
2020/12/09 11:54:59;;;;;;;44.20;29.90;;;5.70;99.90;;;;;;5092269;28;20525;-85
2020/12/09 11:57:26;;;;;;;43.33;30.93;;;5.80;99.90;;;;;;5092748;28;20548;-85
2020/12/09 11:59:55;;;;;;;47.20;31.17;;;5.80;99.90;;;;;;5092425;28;20458;-86
2020/12/09 12:02:21;;;;;;;50.67;33.13;;;5.90;99.90;;;;;;5092728;28;20433;-86
2020/12/09 12:04:52;;;;;;;48.87;31.73;;;5.80;99.90;;;;;;5092503;28;20884;-84
2020/12/09 12:07:22;;;;;;;46.87;31.67;;;5.80;99.90;;;;;;5088342;28;20454;-86
2020/12/09 12:09:48;;;;;;;46.50;30.50;;;5.90;99.90;;;;;;5096813;28;20438;-85
2020/12/09 12:12:15;;;;;;;52.17;30.97;;;5.90;99.90;;;;;;5096677;28;20521;-85
2020/12/09 12:14:43;;;;;;;48.13;32.03;;;6.00;99.90;;;;;;5096566;28;20438;-85
2020/12/09 12:17:12;;;;;;;49.80;31.13;;;6.00;99.90;;;;;;5095983;28;20580;-86
2020/12/09 12:19:38;;;;;;;55.00;34.47;;;6.30;99.90;;;;;;5096516;28;20449;-84
2020/12/09 12:22:06;;;;;;;50.93;34.13;;;6.40;99.90;;;;;;5096551;28;20580;-85
2020/12/09 12:24:33;;;;;;;49.50;30.60;;;6.40;99.90;;;;;;5096209;28;21001;-84
2020/12/09 12:27:00;;;;;;;41.70;27.90;;;6.40;99.90;;;;;;5097066;28;20861;-85
2020/12/09 12:29:26;;;;;;;50.70;31.40;;;6.30;99.90;;;;;;5095525;28;21052;-86
2020/12/09 12:31:52;;;;;;;48.53;32.93;;;6.20;99.90;;;;;;5096712;28;20466;-85
2020/12/09 12:34:20;;;;;;;47.63;30.93;;;6.00;99.90;;;;;;5093146;28;21001;-85
2020/12/09 12:36:46;;;;;;;42.00;30.03;;;6.00;99.90;;;;;;5091367;28;20452;-85
2020/12/09 12:39:13;;;;;;;48.07;32.53;;;6.00;99.90;;;;;;5094871;28;21004;-85
2020/12/09 12:41:43;;;;;;;42.03;28.80;;;6.20;99.90;;;;;;5088548;28;21084;-85